Time;durP1;ratioP1;P1;durP2;ratioP2;P2;SDS_P1;SDS_P2;PMS_P1;PMS_P2;Temp;Humidity;BMP_temperature;BMP_pressure;BME280_temperature;BME280_humidity;BME280_pressure;Samples;Min_cycle;Max_cycle;Signal;HPM_P1;HPM_P2
2023/05/23 00:01:49;;;;;;;;;;;;;;;;;;5111854;27;19916;-67
2023/05/23 00:04:18;;;;;;;;;;;;;;;;;;5111861;28;19957;-68
2023/05/23 00:06:49;;;;;;;;;;;;;;;;;;5111584;28;19916;-67
2023/05/23 00:10:24;;;;;;;;;;;;;;;;;;5091611;27;19939;-68
2023/05/23 00:12:51;;;;;;;;;;;;;;;;;;5090103;28;20006;-68
2023/05/23 00:15:17;;;;;;;;;;;;;;;;;;5090834;28;19909;-68
2023/05/23 00:17:43;;;;;;;;;;;;;;;;;;5091226;28;20011;-68
2023/05/23 00:20:10;;;;;;;;;;;;;;;;;;5091245;28;20404;-68
2023/05/23 00:22:38;;;;;;;;;;;;;;;;;;5090734;28;19995;-69
2023/05/23 00:28:16;;;;;;;;;;;;;;;;;;5091382;28;20290;-69
2023/05/23 00:32:34;;;;;;;;;;;;;;;;;;5092115;27;20284;-68
2023/05/23 00:39:27;;;;;;;;;;;;;;;;;;5153603;27;20002;-68
2023/05/23 00:41:52;;;;;;;;;;;;;;;;;;5152491;27;19998;-68
2023/05/23 00:44:18;;;;;;;;;;;;;;;;;;5152776;27;19908;-68
2023/05/23 00:46:45;;;;;;;;;;;;;;;;;;5152881;27;20412;-68
2023/05/23 00:49:11;;;;;;;;;;;;;;;;;;5152272;27;19942;-68
2023/05/23 00:51:37;;;;;;;;;;;;;;;;;;5152625;27;20435;-68
2023/05/23 00:57:12;;;;;;;;;;;;;;;;;;5091090;27;19916;-68
2023/05/23 01:05:06;;;;;;;;;;;;;;;;;;5091436;28;19916;-68
2023/05/23 01:10:19;;;;;;;;;;;;;;;;;;5091347;27;19922;-68
2023/05/23 01:12:45;;;;;;;;;;;;;;;;;;5091222;28;20350;-68
2023/05/23 01:15:11;;;;;;;;;;;;;;;;;;5091198;28;19908;-68
2023/05/23 01:18:40;;;;;;;;;;;;;;;;;;5131846;27;19926;-68
2023/05/23 01:21:06;;;;;;;;;;;;;;;;;;5132246;27;19957;-68
2023/05/23 01:25:13;;;;;;;;;;;;;;;;;;5091171;27;19923;-68
2023/05/23 01:30:30;;;;;;;;;;;;;;;;;;5112205;27;19916;-68
2023/05/23 01:32:56;;;;;;;;;;;;;;;;;;5111382;28;20390;-68
2023/05/23 01:35:42;;;;;;;;;;;;;;;;;;5091572;27;19917;-68
2023/05/23 01:40:00;;;;;;;;;;;;;;;;;;5091481;27;20384;-69
2023/05/23 01:42:27;;;;;;;;;;;;;;;;;;5091612;28;20015;-69
2023/05/23 01:49:09;;;;;;;;;;;;;;;;;;5091860;27;19916;-68
2023/05/23 01:51:34;;;;;;;;;;;;;;;;;;5091301;28;20003;-68
2023/05/23 01:54:00;;;;;;;;;;;;;;;;;;5090824;28;19909;-68
2023/05/23 01:56:27;;;;;;;;;;;;;;;;;;5091217;28;19944;-68
2023/05/23 01:58:53;;;;;;;;;;;;;;;;;;5090630;28;19961;-68
2023/05/23 02:02:59;;;;;;;;;;;;;;;;;;5174561;27;19914;-68
2023/05/23 02:05:26;;;;;;;;;;;;;;;;;;5173690;27;20347;-68
2023/05/23 02:08:37;;;;;;;;;;;;;;;;;;5051053;28;19924;-68
2023/05/23 02:13:17;;;;;;;;;;;;;;;;;;5091429;27;19922;-68
2023/05/23 02:18:03;;;;;;;;;;;;;;;;;;5092068;27;19919;-68
2023/05/23 02:23:38;;;;;;;;;;;;;;;;;;5091387;28;19916;-68
2023/05/23 02:26:04;;;;;;;;;;;;;;;;;;5091351;28;20006;-68
2023/05/23 02:31:07;;;;;;;;;;;;;;;;;;5091812;27;20291;-68
2023/05/23 02:33:33;;;;;;;;;;;;;;;;;;5091394;28;19995;-68
2023/05/23 02:35:59;;;;;;;;;;;;;;;;;;5090792;28;19931;-68
2023/05/23 02:39:57;;;;;;;;;;;;;;;;;;5091429;27;20402;-69
2023/05/23 02:43:11;;;;;;;;;;;;;;;;;;5091005;27;19917;-70
2023/05/23 02:45:37;;;;;;;;;;;;;;;;;;5091563;28;19918;-69
2023/05/23 02:49:55;;;;;;;;;;;;;;;;;;5091054;27;20291;-68
2023/05/23 02:52:21;;;;;;;;;;;;;;;;;;5091591;28;20003;-68
2023/05/23 02:56:16;;;;;;;;;;;;;;;;;;5091089;28;19917;-68
2023/05/23 02:58:42;;;;;;;;;;;;;;;;;;5091181;28;20011;-68
2023/05/23 03:01:08;;;;;;;;;;;;;;;;;;5091170;28;19948;-67
2023/05/23 03:04:58;;;;;;;;;;;;;;;;;;5091620;27;20278;-68
2023/05/23 03:07:25;;;;;;;;;;;;;;;;;;5091193;28;19999;-68
2023/05/23 03:09:51;;;;;;;;;;;;;;;;;;5090810;28;20011;-68
2023/05/23 03:13:18;;;;;;;;;;;;;;;;;;5153188;27;20010;-69
2023/05/23 03:21:06;;;;;;;;;;;;;;;;;;5153009;27;20014;-68
2023/05/23 03:24:35;;;;;;;;;;;;;;;;;;5173497;27;19911;-68
2023/05/23 03:27:01;;;;;;;;;;;;;;;;;;5173567;27;19918;-68
2023/05/23 03:29:27;;;;;;;;;;;;;;;;;;5173546;27;19907;-68
2023/05/23 03:31:53;;;;;;;;;;;;;;;;;;5172999;27;20267;-68
2023/05/23 03:34:44;;;;;;;;;;;;;;;;;;5091364;27;19923;-68
2023/05/23 03:37:10;;;;;;;;;;;;;;;;;;5091174;28;19913;-68
2023/05/23 03:39:36;;;;;;;;;;;;;;;;;;5090816;28;19991;-68
2023/05/23 03:43:49;;;;;;;;;;;;;;;;;;5091681;28;19919;-68
2023/05/23 03:46:15;;;;;;;;;;;;;;;;;;5090939;28;20000;-68
2023/05/23 03:48:41;;;;;;;;;;;;;;;;;;5091201;28;19912;-68
2023/05/23 03:51:07;;;;;;;;;;;;;;;;;;5091232;28;19963;-68
2023/05/23 03:53:33;;;;;;;;;;;;;;;;;;5090747;28;19916;-69
2023/05/23 03:55:59;;;;;;;;;;;;;;;;;;5091096;28;19909;-68
2023/05/23 03:58:25;;;;;;;;;;;;;;;;;;5090725;28;19940;-68
2023/05/23 04:00:51;;;;;;;;;;;;;;;;;;5091554;28;19915;-70
2023/05/23 04:03:17;;;;;;;;;;;;;;;;;;5091235;28;19920;-69
2023/05/23 04:05:43;;;;;;;;;;;;;;;;;;5090522;28;20280;-69
2023/05/23 04:08:09;;;;;;;;;;;;;;;;;;5090954;28;19908;-69
2023/05/23 04:10:35;;;;;;;;;;;;;;;;;;5090903;28;19908;-69
2023/05/23 04:13:01;;;;;;;;;;;;;;;;;;5090399;28;19908;-69
2023/05/23 04:15:27;;;;;;;;;;;;;;;;;;5090786;28;19912;-69
2023/05/23 04:33:40;;;;;;;;;;;;;;;;;;5091369;28;20293;-62
2023/05/23 04:36:09;;;;;;;;;;;;;;;;;;5090785;28;20037;-62
2023/05/23 04:38:37;;;;;;;;;;;;;;;;;;5090947;28;19915;-63
2023/05/23 04:41:03;;;;;;;;;;;;;;;;;;5090931;28;19961;-63
2023/05/23 04:44:36;;;;;;;;;;;;;;;;;;5091151;27;20418;-62
2023/05/23 04:47:02;;;;;;;;;;;;;;;;;;5091384;28;19912;-62
2023/05/23 04:49:28;;;;;;;;;;;;;;;;;;5091241;28;19930;-63
2023/05/23 04:51:54;;;;;;;;;;;;;;;;;;5090879;28;19908;-62
2023/05/23 04:54:20;;;;;;;;;;;;;;;;;;5091235;28;19915;-63
2023/05/23 04:56:46;;;;;;;;;;;;;;;;;;5089877;28;19908;-63
2023/05/23 04:59:12;;;;;;;;;;;;;;;;;;5089453;28;19908;-63
2023/05/23 05:01:53;;;;;;;;;;;;;;;;;;5112120;27;19916;-62
2023/05/23 05:04:19;;;;;;;;;;;;;;;;;;5111342;28;19995;-63
2023/05/23 05:06:46;;;;;;;;;;;;;;;;;;5111972;28;19953;-64
2023/05/23 05:09:12;;;;;;;;;;;;;;;;;;5111707;28;20321;-65
2023/05/23 05:17:21;;;;;;;;;;;;;;;;;;5107716;27;20405;-64
2023/05/23 05:19:47;;;;;;;;;;;;;;;;;;5108019;28;19954;-60
2023/05/23 05:22:14;;;;;;;;;;;;;;;;;;5107594;28;19943;-61
2023/05/23 05:24:40;;;;;;;;;;;;;;;;;;5109261;28;19955;-61
2023/05/23 05:27:06;;;;;;;;;;;;;;;;;;5105270;28;19912;-66
2023/05/23 05:36:31;;;;;;;;;;;;;;;;;;5088331;27;19931;-63
2023/05/23 05:38:57;;;;;;;;;;;;;;;;;;5087828;28;19912;-64
2023/05/23 05:41:23;;;;;;;;;;;;;;;;;;5085586;28;19912;-64
2023/05/23 05:43:49;;;;;;;;;;;;;;;;;;5087802;28;19908;-64
2023/05/23 05:48:28;;;;;;;;;;;;;;;;;;5107022;27;20310;-63
2023/05/23 05:53:18;;;;;;;;;;;;;;;;;;5124358;27;19922;-64
2023/05/23 05:55:44;;;;;;;;;;;;;;;;;;5103333;28;20411;-64
2023/05/23 05:58:10;;;;;;;;;;;;;;;;;;5101380;28;19912;-64
2023/05/23 06:02:29;;;;;;;;;;;;;;;;;;4993594;27;3162299;-63
2023/05/23 06:07:16;;;;;;;;;;;;;;;;;;5083226;27;19917;-65
2023/05/23 06:12:08;;;;;;;;;;;;;;;;;;5085789;28;20364;-65
2023/05/23 06:14:34;;;;;;;;;;;;;;;;;;5069124;28;20083;-64
2023/05/23 06:19:10;;;;;;;;;;;;;;;;;;5109617;27;20386;-63
2023/05/23 06:23:30;;;;;;;;;;;;;;;;;;5160611;27;20366;-62
2023/05/23 06:25:56;;;;;;;;;;;;;;;;;;5158125;27;19912;-63
2023/05/23 06:36:20;;;;;;;;;;;;;;;;;;5011095;27;2624475;-63
2023/05/23 06:41:18;;;;;;;;;;;;;;;;;;5089654;27;20393;-63
2023/05/23 06:43:44;;;;;;;;;;;;;;;;;;5073027;28;20281;-62
2023/05/23 06:48:30;;;;;;;;;;;;;;;;;;5142094;27;19920;-65
2023/05/23 06:55:36;;;;;;;;;;;;;;;;;;5110880;27;19915;-63
2023/05/23 06:58:05;;;;;;;;;;;;;;;;;;5126805;27;19912;-64
2023/05/23 07:00:31;;;;;;;;;;;;;;;;;;5110089;27;19927;-66
2023/05/23 07:03:02;;;;;;;;;;;;;;;;;;5122589;27;19911;-63
2023/05/23 07:07:38;;;;;;;;;;;;;;;;;;5085114;27;19912;-65
2023/05/23 07:10:18;;;;;;;;;;;;;;;;;;5085706;27;19920;-65
2023/05/23 07:13:23;;;;;;;;;;;;;;;;;;5066073;28;19920;-63
2023/05/23 07:15:49;;;;;;;;;;;;;;;;;;5051822;28;19913;-64
2023/05/23 07:20:30;;;;;;;;;;;;;;;;;;5135902;27;20290;-63
2023/05/23 07:22:56;;;;;;;;;;;;;;;;;;5113618;28;19934;-61
2023/05/23 07:27:24;;;;;;;;;;;;;;;;;;5083753;27;2215173;-64
2023/05/23 07:29:50;;;;;;;;;;;;;;;;;;5155616;27;19911;-62
2023/05/23 07:32:16;;;;;;;;;;;;;;;;;;5122230;27;19947;-62
2023/05/23 07:39:35;;;;;;;;;;;;;;;;;;5142891;27;19915;-62
2023/05/23 07:46:30;;;;;;;;;;;;;;;;;;5108876;27;19920;-64
2023/05/23 07:48:56;;;;;;;;;;;;;;;;;;5108397;28;20376;-64
2023/05/23 07:52:01;;;;;;;;;;;;;;;;;;5088895;28;19920;-62
2023/05/23 07:54:27;;;;;;;;;;;;;;;;;;5083003;28;19913;-63
2023/05/23 07:56:53;;;;;;;;;;;;;;;;;;5091356;28;19958;-64
2023/05/23 08:00:18;;;;;;;;;;;;;;;;;;5086834;27;19920;-63
2023/05/23 08:05:08;;;;;;;;;;;;;;;;;;5120590;27;19956;-64
2023/05/23 08:08:38;;;;;;;;;;;;;;;;;;5085831;27;19920;-62
2023/05/23 08:11:57;;;;;;;;;;;;;;;;;;5103097;27;19916;-63
2023/05/23 08:14:23;;;;;;;;;;;;;;;;;;5104730;28;19920;-62
2023/05/23 08:16:49;;;;;;;;;;;;;;;;;;5092829;28;19912;-63
2023/05/23 08:19:28;;;;;;;;;;;;;;;;;;5138923;27;19930;-63
2023/05/23 08:22:51;;;;;;;;;;;;;;;;;;5085215;27;19925;-63
2023/05/23 08:26:19;;;;;;;;;;;;;;;;;;5107053;27;20704;-63
2023/05/23 08:28:45;;;;;;;;;;;;;;;;;;5101889;28;19916;-65
2023/05/23 08:32:54;;;;;;;;;;;;;;;;;;5136801;27;19916;-63
2023/05/23 08:35:20;;;;;;;;;;;;;;;;;;5113447;28;19912;-62
2023/05/23 08:41:15;;;;;;;;;;;;;;;;;;5080812;28;19927;-62
2023/05/23 08:43:41;;;;;;;;;;;;;;;;;;5080637;28;19948;-65
2023/05/23 08:46:07;;;;;;;;;;;;;;;;;;5074850;28;19959;-61
2023/05/23 08:48:33;;;;;;;;;;;;;;;;;;5073901;28;19994;-60
2023/05/23 08:53:03;;;;;;;;;;;;;;;;;;5051775;27;2929879;-61
2023/05/23 08:55:29;;;;;;;;;;;;;;;;;;5167373;27;19936;-64
2023/05/23 08:58:42;;;;;;;;;;;;;;;;;;5109769;27;20387;-65
2023/05/23 09:02:25;;;;;;;;;;;;;;;;;;5132119;27;19916;-63
2023/05/23 09:04:52;;;;;;;;;;;;;;;;;;5131042;27;20531;-63
2023/05/23 09:08:56;;;;;;;;;;;;;;;;;;5108029;27;19920;-62
2023/05/23 09:11:23;;;;;;;;;;;;;;;;;;5106836;28;19918;-62
2023/05/23 09:13:49;;;;;;;;;;;;;;;;;;5101420;28;19908;-64
2023/05/23 09:20:21;;;;;;;;;;;;;;;;;;5088926;27;19924;-64
2023/05/23 09:22:47;;;;;;;;;;;;;;;;;;5080062;28;20295;-67
2023/05/23 09:27:35;;;;;;;;;;;;;;;;;;5103790;27;19922;-64
2023/05/23 09:30:04;;;;;;;;;;;;;;;;;;5129880;28;19950;-64
2023/05/23 09:32:36;;;;;;;;;;;;;;;;;;5117844;27;19908;-64
2023/05/23 09:35:03;;;;;;;;;;;;;;;;;;5108152;28;19918;-65
2023/05/23 09:42:15;;;;;;;;;;;;;;;;;;5140599;27;19915;-63
2023/05/23 09:45:21;;;;;;;;;;;;;;;;;;5075532;28;19927;-61
2023/05/23 09:49:22;;;;;;;;;;;;;;;;;;5158317;27;19926;-64
2023/05/23 09:51:49;;;;;;;;;;;;;;;;;;5151094;27;19960;-64
2023/05/23 09:54:58;;;;;;;;;;;;;;;;;;5109740;27;19916;-62
2023/05/23 09:57:38;;;;;;;;;;;;;;;;;;5110476;27;20264;-63
2023/05/23 10:01:55;;;;;;;;;;;;;;;;;;5089242;28;19920;-63
2023/05/23 10:04:24;;;;;;;;;;;;;;;;;;5088394;28;19916;-64
2023/05/23 10:06:53;;;;;;;;;;;;;;;;;;5088091;28;19920;-64
2023/05/23 10:10:21;;;;;;;;;;;;;;;;;;5109508;27;19915;-63
2023/05/23 10:12:47;;;;;;;;;;;;;;;;;;5108205;28;20264;-63
2023/05/23 10:15:13;;;;;;;;;;;;;;;;;;5108983;28;19908;-64
2023/05/23 10:18:57;;;;;;;;;;;;;;;;;;5149400;27;19915;-64
2023/05/23 10:21:23;;;;;;;;;;;;;;;;;;5125530;27;19965;-65
2023/05/23 10:24:57;;;;;;;;;;;;;;;;;;5123016;27;19994;-63
2023/05/23 10:27:23;;;;;;;;;;;;;;;;;;5112653;28;19918;-64
2023/05/23 10:33:15;;;;;;;;;;;;;;;;;;5117279;27;19922;-64
2023/05/23 10:35:43;;;;;;;;;;;;;;;;;;5111960;28;19942;-64
2023/05/23 10:40:12;;;;;;;;;;;;;;;;;;5149305;27;19922;-65
2023/05/23 10:43:50;;;;;;;;;;;;;;;;;;5093033;27;19920;-66
2023/05/23 10:48:26;;;;;;;;;;;;;;;;;;5134675;27;19919;-65
2023/05/23 10:50:52;;;;;;;;;;;;;;;;;;5120697;28;20455;-65
2023/05/23 10:53:18;;;;;;;;;;;;;;;;;;5112141;28;19912;-63
2023/05/23 10:55:44;;;;;;;;;;;;;;;;;;5114795;28;20343;-64
2023/05/23 10:58:10;;;;;;;;;;;;;;;;;;5094058;28;19912;-63
2023/05/23 11:00:36;;;;;;;;;;;;;;;;;;5117531;28;19915;-64
2023/05/23 11:04:26;;;;;;;;;;;;;;;;;;5111374;27;20492;-64
2023/05/23 11:06:53;;;;;;;;;;;;;;;;;;5123990;28;19912;-63
2023/05/23 11:09:20;;;;;;;;;;;;;;;;;;5122428;28;20401;-64
2023/05/23 11:11:46;;;;;;;;;;;;;;;;;;5087701;28;19908;-64
2023/05/23 11:14:11;;;;;;;;;;;;;;;;;;5094231;28;19995;-59
2023/05/23 11:16:47;;;;;;;;;;;;;;;;;;5108651;28;19938;-60
2023/05/23 11:22:02;;;;;;;;;;;;;;;;;;5141389;27;19927;-62
2023/05/23 11:24:28;;;;;;;;;;;;;;;;;;5114442;28;19919;-62
2023/05/23 11:30:23;;;;;;;;;;;;;;;;;;5110488;27;19912;-62
2023/05/23 11:32:49;;;;;;;;;;;;;;;;;;5116618;28;19920;-62
2023/05/23 11:35:15;;;;;;;;;;;;;;;;;;5122160;28;19912;-62
2023/05/23 11:37:41;;;;;;;;;;;;;;;;;;5115567;27;19978;-61
2023/05/23 11:40:07;;;;;;;;;;;;;;;;;;5117012;28;19912;-61
2023/05/23 11:42:33;;;;;;;;;;;;;;;;;;5130228;28;20254;-64
2023/05/23 11:45:00;;;;;;;;;;;;;;;;;;5110963;28;19950;-64
2023/05/23 11:51:08;;;;;;;;;;;;;;;;;;5098858;27;19938;-63
2023/05/23 11:53:34;;;;;;;;;;;;;;;;;;5093333;28;19919;-64
2023/05/23 11:59:01;;;;;;;;;;;;;;;;;;5091427;27;20280;-64
2023/05/23 12:01:27;;;;;;;;;;;;;;;;;;5089810;28;20007;-64
2023/05/23 12:04:19;;;;;;;;;;;;;;;;;;5090981;28;19938;-62
2023/05/23 12:11:32;;;;;;;;;;;;;;;;;;5110456;27;19934;-62
2023/05/23 12:14:05;;;;;;;;;;;;;;;;;;5108497;28;19912;-63
2023/05/23 12:16:31;;;;;;;;;;;;;;;;;;5088507;28;19922;-63
2023/05/23 12:18:57;;;;;;;;;;;;;;;;;;5096236;28;19990;-63
2023/05/23 12:21:23;;;;;;;;;;;;;;;;;;5106961;28;20316;-63
2023/05/23 12:23:49;;;;;;;;;;;;;;;;;;5107349;28;19919;-63
2023/05/23 12:27:28;;;;;;;;;;;;;;;;;;5111275;27;20379;-63
2023/05/23 12:29:55;;;;;;;;;;;;;;;;;;5110619;28;19912;-64
2023/05/23 12:32:21;;;;;;;;;;;;;;;;;;5112759;27;20385;-63
2023/05/23 12:37:48;;;;;;;;;;;;;;;;;;5090881;27;20367;-62
2023/05/23 12:44:26;;;;;;;;;;;;;;;;;;5141696;27;20002;-63
2023/05/23 12:46:52;;;;;;;;;;;;;;;;;;5143498;27;20422;-62
2023/05/23 12:50:12;;;;;;;;;;;;;;;;;;5110456;27;20282;-64
2023/05/23 12:52:39;;;;;;;;;;;;;;;;;;5109492;28;20386;-63
2023/05/23 12:55:05;;;;;;;;;;;;;;;;;;5107971;28;19912;-64
2023/05/23 12:58:12;;;;;;;;;;;;;;;;;;5151163;27;19912;-63
2023/05/23 13:02:10;;;;;;;;;;;;;;;;;;5109636;27;19920;-65
2023/05/23 13:09:10;;;;;;;;;;;;;;;;;;5110482;27;19916;-64
2023/05/23 13:11:36;;;;;;;;;;;;;;;;;;5109392;28;20298;-64
2023/05/23 13:20:39;;;;;;;;;;;;;;;;;;5151490;27;19922;-63
2023/05/23 13:23:05;;;;;;;;;;;;;;;;;;5143806;27;19964;-64
2023/05/23 13:29:04;;;;;;;;;;;;;;;;;;5112538;27;20283;-63
2023/05/23 13:32:49;;;;;;;;;;;;;;;;;;5153401;27;20450;-62
2023/05/23 13:39:13;;;;;;;;;;;;;;;;;;5111446;27;19916;-63
2023/05/23 13:46:41;;;;;;;;;;;;;;;;;;5151906;27;19917;-62
2023/05/23 13:49:07;;;;;;;;;;;;;;;;;;5133174;27;19958;-64
2023/05/23 13:54:59;;;;;;;;;;;;;;;;;;5110552;27;19912;-63
2023/05/23 14:03:57;;;;;;;;;;;;;;;;;;5150074;27;19937;-62
2023/05/23 14:06:23;;;;;;;;;;;;;;;;;;5129051;27;20291;-64
2023/05/23 14:08:49;;;;;;;;;;;;;;;;;;5129611;27;19957;-62
2023/05/23 14:13:06;;;;;;;;;;;;;;;;;;5109712;27;20268;-65
2023/05/23 14:15:32;;;;;;;;;;;;;;;;;;5111590;28;19919;-63
2023/05/23 14:18:22;;;;;;;;;;;;;;;;;;5111304;27;19918;-63
2023/05/23 14:20:48;;;;;;;;;;;;;;;;;;5109906;28;20371;-63
2023/05/23 14:23:13;;;;;;;;;;;;;;;;;;5110954;28;20003;-63
2023/05/23 14:29:03;;;;;;;;;;;;;;;;;;5109261;27;19922;-63
2023/05/23 14:31:51;;;;;;;;;;;;;;;;;;5089007;28;20265;-63
2023/05/23 14:34:17;;;;;;;;;;;;;;;;;;5088670;28;19912;-63
2023/05/23 14:36:43;;;;;;;;;;;;;;;;;;5089432;28;19977;-63
2023/05/23 14:39:10;;;;;;;;;;;;;;;;;;5089662;28;19995;-63
2023/05/23 14:41:36;;;;;;;;;;;;;;;;;;5090204;28;19912;-64
2023/05/23 14:44:02;;;;;;;;;;;;;;;;;;5091470;28;19999;-64
2023/05/23 14:46:28;;;;;;;;;;;;;;;;;;5091080;28;19967;-63
2023/05/23 14:48:54;;;;;;;;;;;;;;;;;;5090583;28;19908;-64
2023/05/23 14:51:20;;;;;;;;;;;;;;;;;;5086970;28;20499;-63
2023/05/23 14:53:46;;;;;;;;;;;;;;;;;;5083738;28;19912;-63
2023/05/23 14:56:12;;;;;;;;;;;;;;;;;;5090493;28;19916;-63
2023/05/23 14:58:40;;;;;;;;;;;;;;;;;;5082379;28;19912;-64
2023/05/23 15:01:06;;;;;;;;;;;;;;;;;;5090810;28;19915;-64
2023/05/23 15:03:32;;;;;;;;;;;;;;;;;;5090476;28;19912;-64
2023/05/23 15:05:58;;;;;;;;;;;;;;;;;;5090666;28;19934;-64
2023/05/23 15:08:24;;;;;;;;;;;;;;;;;;5089496;28;19912;-63
2023/05/23 15:10:50;;;;;;;;;;;;;;;;;;5083158;28;19967;-63
2023/05/23 15:13:16;;;;;;;;;;;;;;;;;;5074353;28;20001;-64
2023/05/23 15:15:42;;;;;;;;;;;;;;;;;;5086573;28;19909;-64
2023/05/23 15:18:10;;;;;;;;;;;;;;;;;;5088012;28;19957;-63
2023/05/23 15:20:36;;;;;;;;;;;;;;;;;;5090285;28;19908;-63
2023/05/23 15:23:02;;;;;;;;;;;;;;;;;;5082198;28;20395;-63
2023/05/23 15:25:28;;;;;;;;;;;;;;;;;;5081327;28;19912;-63
2023/05/23 15:27:55;;;;;;;;;;;;;;;;;;5089611;28;20439;-63
2023/05/23 15:30:21;;;;;;;;;;;;;;;;;;5087100;28;19924;-64
2023/05/23 15:32:47;;;;;;;;;;;;;;;;;;5090236;28;20387;-64
2023/05/23 15:35:13;;;;;;;;;;;;;;;;;;5078981;28;19912;-63
2023/05/23 15:37:39;;;;;;;;;;;;;;;;;;5079267;28;19909;-63
2023/05/23 15:40:05;;;;;;;;;;;;;;;;;;5069743;28;19931;-63
2023/05/23 15:42:31;;;;;;;;;;;;;;;;;;5060194;28;19913;-63
2023/05/23 15:44:57;;;;;;;;;;;;;;;;;;5054949;28;19913;-63
2023/05/23 15:47:23;;;;;;;;;;;;;;;;;;5056500;28;19915;-63
2023/05/23 15:49:48;;;;;;;;;;;;;;;;;;5055287;28;19913;-63
2023/05/23 15:52:14;;;;;;;;;;;;;;;;;;5058716;28;19912;-63
2023/05/23 15:54:40;;;;;;;;;;;;;;;;;;5075936;28;20010;-63
2023/05/23 15:57:06;;;;;;;;;;;;;;;;;;5076243;28;19915;-63
2023/05/23 15:59:32;;;;;;;;;;;;;;;;;;5075850;28;19909;-63
2023/05/23 16:01:58;;;;;;;;;;;;;;;;;;5076132;28;19908;-64
2023/05/23 16:04:24;;;;;;;;;;;;;;;;;;5076174;28;19908;-64
2023/05/23 16:06:50;;;;;;;;;;;;;;;;;;5075765;28;19912;-63
2023/05/23 16:09:16;;;;;;;;;;;;;;;;;;5074792;28;20011;-64
2023/05/23 16:11:42;;;;;;;;;;;;;;;;;;5075061;28;19916;-64
2023/05/23 16:14:08;;;;;;;;;;;;;;;;;;5055471;28;19909;-63
2023/05/23 16:16:34;;;;;;;;;;;;;;;;;;5055876;28;19996;-64
2023/05/23 16:19:00;;;;;;;;;;;;;;;;;;5055966;28;20335;-64
2023/05/23 16:21:26;;;;;;;;;;;;;;;;;;5055679;28;19909;-64
2023/05/23 16:23:52;;;;;;;;;;;;;;;;;;5056263;28;20064;-64
2023/05/23 16:26:18;;;;;;;;;;;;;;;;;;5054100;28;19908;-64
2023/05/23 16:31:12;;;;;;;;;;;;;;;;;;5111877;27;20299;-63
2023/05/23 16:33:38;;;;;;;;;;;;;;;;;;5111333;28;19951;-63
2023/05/23 16:39:43;;;;;;;;;;;;;;;;;;5142444;27;20420;-64
2023/05/23 16:42:09;;;;;;;;;;;;;;;;;;5131554;28;19998;-63
2023/05/23 16:44:49;;;;;;;;;;;;;;;;;;5104741;27;19921;-63
2023/05/23 16:47:15;;;;;;;;;;;;;;;;;;5090972;28;20350;-63
2023/05/23 16:49:41;;;;;;;;;;;;;;;;;;5091310;28;19940;-63
2023/05/23 16:52:06;;;;;;;;;;;;;;;;;;5106895;28;19915;-65
2023/05/23 16:58:44;;;;;;;;;;;;;;;;;;5089184;27;20287;-63
2023/05/23 17:01:10;;;;;;;;;;;;;;;;;;5089263;28;19912;-64
2023/05/23 17:04:33;;;;;;;;;;;;;;;;;;5069274;28;19919;-63
2023/05/23 17:07:00;;;;;;;;;;;;;;;;;;5069324;28;20292;-63
2023/05/23 17:10:35;;;;;;;;;;;;;;;;;;5150515;27;19912;-65
2023/05/23 17:13:01;;;;;;;;;;;;;;;;;;5152745;27;19964;-63
2023/05/23 17:16:03;;;;;;;;;;;;;;;;;;5091306;27;19916;-63
2023/05/23 17:18:29;;;;;;;;;;;;;;;;;;5091528;28;20390;-64
2023/05/23 17:22:18;;;;;;;;;;;;;;;;;;5152935;27;19917;-63
2023/05/23 17:28:01;;;;;;;;;;;;;;;;;;5091894;27;20268;-63
2023/05/23 17:31:35;;;;;;;;;;;;;;;;;;5091013;28;19923;-63
2023/05/23 17:35:58;;;;;;;;;;;;;;;;;;5112539;27;19922;-63
2023/05/23 17:42:35;;;;;;;;;;;;;;;;;;5132826;27;19912;-63
2023/05/23 17:48:11;;;;;;;;;;;;;;;;;;5153290;27;20005;-65
2023/05/23 17:50:37;;;;;;;;;;;;;;;;;;5152668;27;19946;-63
2023/05/23 17:53:03;;;;;;;;;;;;;;;;;;5134234;27;19914;-64
2023/05/23 17:55:29;;;;;;;;;;;;;;;;;;5152750;27;20316;-63
2023/05/23 17:59:43;;;;;;;;;;;;;;;;;;5090750;27;20368;-63
2023/05/23 18:02:09;;;;;;;;;;;;;;;;;;5091088;28;20358;-64
2023/05/23 18:10:46;;;;;;;;;;;;;;;;;;5111884;27;19916;-65
2023/05/23 18:13:12;;;;;;;;;;;;;;;;;;5111338;28;19920;-65
2023/05/23 18:16:59;;;;;;;;;;;;;;;;;;5091501;27;19918;-65
2023/05/23 18:19:25;;;;;;;;;;;;;;;;;;5090981;28;19913;-63
2023/05/23 18:22:37;;;;;;;;;;;;;;;;;;5152985;27;20006;-62
2023/05/23 18:25:50;;;;;;;;;;;;;;;;;;5111576;27;19922;-63
2023/05/23 18:28:16;;;;;;;;;;;;;;;;;;5111752;28;19912;-64
2023/05/23 18:31:18;;;;;;;;;;;;;;;;;;5111038;27;20375;-62
2023/05/23 18:33:44;;;;;;;;;;;;;;;;;;5110018;28;19999;-64
2023/05/23 18:36:10;;;;;;;;;;;;;;;;;;5111690;28;19947;-63
2023/05/23 18:38:36;;;;;;;;;;;;;;;;;;5111582;28;19911;-63
2023/05/23 18:42:32;;;;;;;;;;;;;;;;;;5112052;27;19916;-65
2023/05/23 18:44:58;;;;;;;;;;;;;;;;;;5111762;28;20030;-62
2023/05/23 18:47:24;;;;;;;;;;;;;;;;;;5111241;28;19915;-63
2023/05/23 18:54:54;;;;;;;;;;;;;;;;;;5111392;27;19934;-61
2023/05/23 18:59:14;;;;;;;;;;;;;;;;;;5152880;27;20318;-62
2023/05/23 19:07:09;;;;;;;;;;;;;;;;;;5111601;27;19923;-65
2023/05/23 19:10:40;;;;;;;;;;;;;;;;;;5051145;28;19923;-64
2023/05/23 19:13:06;;;;;;;;;;;;;;;;;;5049773;28;19913;-63
2023/05/23 19:15:32;;;;;;;;;;;;;;;;;;5050699;28;19909;-63
2023/05/23 19:19:29;;;;;;;;;;;;;;;;;;5091877;27;19922;-64
2023/05/23 19:23:37;;;;;;;;;;;;;;;;;;5111550;27;19916;-64
2023/05/23 19:28:02;;;;;;;;;;;;;;;;;;5091667;28;19916;-61
2023/05/23 19:30:28;;;;;;;;;;;;;;;;;;5088342;28;19999;-65
2023/05/23 19:32:54;;;;;;;;;;;;;;;;;;5089742;28;19908;-63
2023/05/23 19:36:22;;;;;;;;;;;;;;;;;;5071332;27;19919;-62
2023/05/23 19:43:59;;;;;;;;;;;;;;;;;;5111557;27;20295;-63
2023/05/23 19:46:25;;;;;;;;;;;;;;;;;;5110975;28;20007;-65
2023/05/23 19:49:01;;;;;;;;;;;;;;;;;;5110382;27;20291;-63
2023/05/23 19:51:27;;;;;;;;;;;;;;;;;;5110757;28;19912;-63
2023/05/23 19:53:53;;;;;;;;;;;;;;;;;;5111270;28;19915;-63
2023/05/23 19:56:19;;;;;;;;;;;;;;;;;;5111243;28;19908;-63
2023/05/23 19:58:45;;;;;;;;;;;;;;;;;;5111006;28;19908;-63
2023/05/23 20:01:11;;;;;;;;;;;;;;;;;;5110032;28;19965;-64
2023/05/23 20:03:37;;;;;;;;;;;;;;;;;;5111404;28;20314;-63
2023/05/23 20:09:08;;;;;;;;;;;;;;;;;;5092174;27;19912;-65
2023/05/23 20:11:34;;;;;;;;;;;;;;;;;;5090967;28;19995;-65
2023/05/23 20:16:12;;;;;;;;;;;;;;;;;;5112006;27;19923;-65
2023/05/23 20:23:30;;;;;;;;;;;;;;;;;;5152958;27;19916;-65
2023/05/23 20:28:31;;;;;;;;;;;;;;;;;;5112048;27;20367;-65
2023/05/23 20:32:03;;;;;;;;;;;;;;;;;;5153080;27;20006;-63
2023/05/23 20:35:48;;;;;;;;;;;;;;;;;;5112332;27;19916;-63
2023/05/23 20:45:00;;;;;;;;;;;;;;;;;;5132919;27;19915;-64
2023/05/23 20:49:08;;;;;;;;;;;;;;;;;;5112312;27;20268;-65
2023/05/23 20:51:34;;;;;;;;;;;;;;;;;;5112269;28;19912;-65
2023/05/23 20:54:00;;;;;;;;;;;;;;;;;;5111337;28;19914;-65
2023/05/23 20:56:26;;;;;;;;;;;;;;;;;;5111744;28;19908;-64
2023/05/23 21:00:23;;;;;;;;;;;;;;;;;;5112172;27;19923;-65
2023/05/23 21:02:49;;;;;;;;;;;;;;;;;;5111852;28;19919;-65
2023/05/23 21:05:15;;;;;;;;;;;;;;;;;;5111722;28;19912;-65
2023/05/23 21:08:06;;;;;;;;;;;;;;;;;;5111706;27;20397;-65
2023/05/23 21:10:32;;;;;;;;;;;;;;;;;;5111719;28;19999;-65
2023/05/23 21:13:42;;;;;;;;;;;;;;;;;;5153165;27;20065;-65
2023/05/23 21:16:11;;;;;;;;;;;;;;;;;;5152567;27;19969;-65
2023/05/23 21:24:04;;;;;;;;;;;;;;;;;;5112038;27;19916;-65
2023/05/23 21:26:29;;;;;;;;;;;;;;;;;;5111844;28;19919;-63
2023/05/23 21:33:55;;;;;;;;;;;;;;;;;;5153411;27;20029;-65
2023/05/23 21:42:09;;;;;;;;;;;;;;;;;;5092262;27;19922;-65
2023/05/23 21:44:35;;;;;;;;;;;;;;;;;;5089685;28;20349;-65
2023/05/23 21:48:07;;;;;;;;;;;;;;;;;;5091901;27;19919;-63
2023/05/23 21:53:47;;;;;;;;;;;;;;;;;;5111823;27;19916;-63
2023/05/23 21:56:25;;;;;;;;;;;;;;;;;;5112002;27;19916;-63
2023/05/23 21:58:51;;;;;;;;;;;;;;;;;;5111440;28;19999;-65
2023/05/23 22:01:17;;;;;;;;;;;;;;;;;;5111766;28;20359;-65
2023/05/23 22:03:42;;;;;;;;;;;;;;;;;;5109982;28;19999;-65
2023/05/23 22:06:08;;;;;;;;;;;;;;;;;;5112161;28;20359;-65
2023/05/23 22:08:34;;;;;;;;;;;;;;;;;;5111578;28;19912;-65
2023/05/23 22:11:01;;;;;;;;;;;;;;;;;;5111235;28;19961;-64
2023/05/23 22:13:27;;;;;;;;;;;;;;;;;;5110168;28;19908;-64
2023/05/23 22:15:53;;;;;;;;;;;;;;;;;;5111294;28;20011;-63
2023/05/23 22:18:19;;;;;;;;;;;;;;;;;;5111009;28;19908;-63
2023/05/23 22:20:47;;;;;;;;;;;;;;;;;;5111339;28;19919;-62
2023/05/23 22:24:38;;;;;;;;;;;;;;;;;;5112518;27;19918;-64
2023/05/23 22:27:03;;;;;;;;;;;;;;;;;;5109978;28;19912;-65
2023/05/23 22:29:29;;;;;;;;;;;;;;;;;;5111723;28;19914;-64
2023/05/23 22:31:55;;;;;;;;;;;;;;;;;;5110001;28;19958;-63
2023/05/23 22:34:21;;;;;;;;;;;;;;;;;;5111773;28;19919;-65
2023/05/23 22:36:47;;;;;;;;;;;;;;;;;;5111612;28;19908;-65
2023/05/23 22:39:13;;;;;;;;;;;;;;;;;;5111189;28;20011;-62
2023/05/23 22:43:00;;;;;;;;;;;;;;;;;;5153391;27;19918;-65
2023/05/23 22:45:27;;;;;;;;;;;;;;;;;;5153477;27;20004;-65
2023/05/23 22:49:28;;;;;;;;;;;;;;;;;;5091748;27;19922;-65
2023/05/23 22:51:54;;;;;;;;;;;;;;;;;;5091416;28;19912;-64
2023/05/23 22:54:20;;;;;;;;;;;;;;;;;;5089643;28;19919;-64
2023/05/23 22:58:13;;;;;;;;;;;;;;;;;;5112422;27;19922;-65
2023/05/23 23:00:39;;;;;;;;;;;;;;;;;;5111444;28;19999;-64